sensor_id;sensor_type;location;lat;lon;timestamp;P1;durP1;ratioP1;P2;durP2;ratioP2
50932;SDS011;36921;49.006;9.292;2023-06-04T00:02:18;3.78;;;1.98;;
50932;SDS011;36921;49.006;9.292;2023-06-04T00:04:44;3.67;;;2.00;;
50932;SDS011;36921;49.006;9.292;2023-06-04T00:07:09;6.15;;;2.00;;
50932;SDS011;36921;49.006;9.292;2023-06-04T00:09:35;6.05;;;1.98;;
50932;SDS011;36921;49.006;9.292;2023-06-04T00:12:00;4.40;;;1.90;;
50932;SDS011;36921;49.006;9.292;2023-06-04T00:14:25;4.70;;;1.90;;
50932;SDS011;36921;49.006;9.292;2023-06-04T00:16:51;3.38;;;1.92;;
50932;SDS011;36921;49.006;9.292;2023-06-04T00:19:16;3.05;;;1.92;;
50932;SDS011;36921;49.006;9.292;2023-06-04T00:21:42;3.08;;;1.85;;
50932;SDS011;36921;49.006;9.292;2023-06-04T00:24:07;2.92;;;1.90;;
50932;SDS011;36921;49.006;9.292;2023-06-04T00:26:33;2.75;;;1.67;;
50932;SDS011;36921;49.006;9.292;2023-06-04T00:28:58;5.43;;;1.85;;
50932;SDS011;36921;49.006;9.292;2023-06-04T00:31:25;6.88;;;2.10;;
50932;SDS011;36921;49.006;9.292;2023-06-04T00:33:51;5.47;;;1.80;;
50932;SDS011;36921;49.006;9.292;2023-06-04T00:36:17;5.88;;;2.05;;
50932;SDS011;36921;49.006;9.292;2023-06-04T00:38:42;4.53;;;1.85;;
50932;SDS011;36921;49.006;9.292;2023-06-04T00:41:08;4.57;;;2.08;;
50932;SDS011;36921;49.006;9.292;2023-06-04T00:43:33;4.40;;;1.90;;
50932;SDS011;36921;49.006;9.292;2023-06-04T00:46:02;6.32;;;1.77;;
50932;SDS011;36921;49.006;9.292;2023-06-04T00:48:30;8.15;;;2.22;;
50932;SDS011;36921;49.006;9.292;2023-06-04T00:50:56;3.63;;;1.73;;
50932;SDS011;36921;49.006;9.292;2023-06-04T00:53:23;4.18;;;1.90;;
50932;SDS011;36921;49.006;9.292;2023-06-04T00:55:49;3.70;;;2.00;;
50932;SDS011;36921;49.006;9.292;2023-06-04T00:58:16;4.82;;;1.92;;
50932;SDS011;36921;49.006;9.292;2023-06-04T01:00:42;4.10;;;1.90;;
50932;SDS011;36921;49.006;9.292;2023-06-04T01:03:10;6.07;;;2.15;;
50932;SDS011;36921;49.006;9.292;2023-06-04T01:08:08;4.75;;;2.05;;
50932;SDS011;36921;49.006;9.292;2023-06-04T01:10:35;4.85;;;2.13;;
50932;SDS011;36921;49.006;9.292;2023-06-04T01:13:01;4.55;;;2.00;;
50932;SDS011;36921;49.006;9.292;2023-06-04T01:15:26;4.93;;;2.03;;
50932;SDS011;36921;49.006;9.292;2023-06-04T01:17:58;3.47;;;2.17;;
50932;SDS011;36921;49.006;9.292;2023-06-04T01:26:08;6.75;;;1.90;;
50932;SDS011;36921;49.006;9.292;2023-06-04T01:28:35;4.35;;;1.92;;
50932;SDS011;36921;49.006;9.292;2023-06-04T01:31:02;4.68;;;2.15;;
50932;SDS011;36921;49.006;9.292;2023-06-04T01:33:29;3.45;;;1.90;;
50932;SDS011;36921;49.006;9.292;2023-06-04T01:35:55;3.80;;;2.00;;
50932;SDS011;36921;49.006;9.292;2023-06-04T01:38:20;5.20;;;1.90;;
50932;SDS011;36921;49.006;9.292;2023-06-04T01:40:46;5.65;;;2.10;;
50932;SDS011;36921;49.006;9.292;2023-06-04T01:43:12;5.18;;;2.20;;
50932;SDS011;36921;49.006;9.292;2023-06-04T01:45:38;4.38;;;1.90;;
50932;SDS011;36921;49.006;9.292;2023-06-04T01:48:04;6.82;;;2.10;;
50932;SDS011;36921;49.006;9.292;2023-06-04T01:50:33;7.25;;;1.83;;
50932;SDS011;36921;49.006;9.292;2023-06-04T01:52:59;5.43;;;1.80;;
50932;SDS011;36921;49.006;9.292;2023-06-04T01:55:24;3.67;;;1.80;;
50932;SDS011;36921;49.006;9.292;2023-06-04T01:57:51;3.08;;;2.05;;
50932;SDS011;36921;49.006;9.292;2023-06-04T02:00:16;3.13;;;1.95;;
50932;SDS011;36921;49.006;9.292;2023-06-04T02:02:43;6.38;;;2.08;;
50932;SDS011;36921;49.006;9.292;2023-06-04T02:05:10;6.22;;;2.08;;
50932;SDS011;36921;49.006;9.292;2023-06-04T02:07:37;3.10;;;1.75;;
50932;SDS011;36921;49.006;9.292;2023-06-04T02:10:07;5.90;;;2.05;;
50932;SDS011;36921;49.006;9.292;2023-06-04T02:12:35;3.78;;;2.05;;
50932;SDS011;36921;49.006;9.292;2023-06-04T02:15:02;3.20;;;1.90;;
50932;SDS011;36921;49.006;9.292;2023-06-04T02:17:27;3.50;;;1.88;;
50932;SDS011;36921;49.006;9.292;2023-06-04T02:19:57;9.93;;;2.13;;
50932;SDS011;36921;49.006;9.292;2023-06-04T02:22:23;4.38;;;1.80;;
50932;SDS011;36921;49.006;9.292;2023-06-04T02:24:49;3.92;;;2.40;;
50932;SDS011;36921;49.006;9.292;2023-06-04T02:27:15;3.20;;;2.00;;
50932;SDS011;36921;49.006;9.292;2023-06-04T02:29:41;7.05;;;2.13;;
50932;SDS011;36921;49.006;9.292;2023-06-04T02:32:07;5.05;;;1.80;;
50932;SDS011;36921;49.006;9.292;2023-06-04T02:34:33;4.40;;;1.65;;
50932;SDS011;36921;49.006;9.292;2023-06-04T02:37:01;4.65;;;1.58;;
50932;SDS011;36921;49.006;9.292;2023-06-04T02:39:28;2.92;;;1.85;;
50932;SDS011;36921;49.006;9.292;2023-06-04T02:41:53;3.50;;;1.63;;
50932;SDS011;36921;49.006;9.292;2023-06-04T02:44:19;2.67;;;1.45;;
50932;SDS011;36921;49.006;9.292;2023-06-04T02:46:44;3.85;;;1.80;;
50932;SDS011;36921;49.006;9.292;2023-06-04T02:49:10;4.80;;;1.92;;
50932;SDS011;36921;49.006;9.292;2023-06-04T02:51:43;3.72;;;1.90;;
50932;SDS011;36921;49.006;9.292;2023-06-04T02:54:08;7.47;;;2.05;;
50932;SDS011;36921;49.006;9.292;2023-06-04T02:56:36;5.05;;;1.50;;
50932;SDS011;36921;49.006;9.292;2023-06-04T02:59:02;1.98;;;1.45;;
50932;SDS011;36921;49.006;9.292;2023-06-04T03:01:28;6.00;;;1.90;;
50932;SDS011;36921;49.006;9.292;2023-06-04T03:03:54;2.08;;;1.60;;
50932;SDS011;36921;49.006;9.292;2023-06-04T03:06:20;2.72;;;1.70;;
50932;SDS011;36921;49.006;9.292;2023-06-04T03:08:47;5.28;;;1.73;;
50932;SDS011;36921;49.006;9.292;2023-06-04T03:11:13;1.98;;;1.48;;
50932;SDS011;36921;49.006;9.292;2023-06-04T03:13:39;4.68;;;1.70;;
50932;SDS011;36921;49.006;9.292;2023-06-04T03:16:05;3.97;;;1.60;;
50932;SDS011;36921;49.006;9.292;2023-06-04T03:18:40;5.68;;;1.70;;
50932;SDS011;36921;49.006;9.292;2023-06-04T03:21:07;3.72;;;1.60;;
50932;SDS011;36921;49.006;9.292;2023-06-04T03:23:34;3.70;;;2.20;;
50932;SDS011;36921;49.006;9.292;2023-06-04T03:26:03;4.50;;;2.47;;
50932;SDS011;36921;49.006;9.292;2023-06-04T03:28:30;6.05;;;2.20;;
50932;SDS011;36921;49.006;9.292;2023-06-04T03:30:56;3.28;;;1.80;;
50932;SDS011;36921;49.006;9.292;2023-06-04T03:33:22;2.65;;;1.70;;
50932;SDS011;36921;49.006;9.292;2023-06-04T03:35:47;4.10;;;1.77;;
50932;SDS011;36921;49.006;9.292;2023-06-04T03:38:13;3.05;;;1.75;;
50932;SDS011;36921;49.006;9.292;2023-06-04T03:40:39;2.88;;;1.67;;
50932;SDS011;36921;49.006;9.292;2023-06-04T03:43:05;7.10;;;1.77;;
50932;SDS011;36921;49.006;9.292;2023-06-04T03:45:31;2.58;;;1.70;;
50932;SDS011;36921;49.006;9.292;2023-06-04T03:47:56;3.75;;;1.70;;
50932;SDS011;36921;49.006;9.292;2023-06-04T03:50:21;6.50;;;1.92;;
50932;SDS011;36921;49.006;9.292;2023-06-04T03:52:50;3.28;;;1.50;;
50932;SDS011;36921;49.006;9.292;2023-06-04T03:55:15;3.55;;;1.70;;
50932;SDS011;36921;49.006;9.292;2023-06-04T03:57:41;3.10;;;1.55;;
50932;SDS011;36921;49.006;9.292;2023-06-04T04:00:07;2.85;;;1.77;;
50932;SDS011;36921;49.006;9.292;2023-06-04T04:02:37;3.08;;;1.50;;
50932;SDS011;36921;49.006;9.292;2023-06-04T04:05:02;5.00;;;1.67;;
50932;SDS011;36921;49.006;9.292;2023-06-04T04:07:28;2.42;;;1.30;;
50932;SDS011;36921;49.006;9.292;2023-06-04T04:09:53;4.40;;;1.50;;
50932;SDS011;36921;49.006;9.292;2023-06-04T04:12:19;3.05;;;1.42;;
50932;SDS011;36921;49.006;9.292;2023-06-04T04:14:44;3.58;;;1.58;;
50932;SDS011;36921;49.006;9.292;2023-06-04T04:17:11;7.22;;;1.58;;
50932;SDS011;36921;49.006;9.292;2023-06-04T04:19:38;3.17;;;1.40;;
50932;SDS011;36921;49.006;9.292;2023-06-04T04:22:03;3.67;;;1.60;;
50932;SDS011;36921;49.006;9.292;2023-06-04T04:24:28;3.67;;;1.40;;
50932;SDS011;36921;49.006;9.292;2023-06-04T04:26:54;2.67;;;1.50;;
50932;SDS011;36921;49.006;9.292;2023-06-04T04:29:20;4.30;;;1.45;;
50932;SDS011;36921;49.006;9.292;2023-06-04T04:31:50;8.65;;;2.17;;
50932;SDS011;36921;49.006;9.292;2023-06-04T04:34:15;2.95;;;1.85;;
50932;SDS011;36921;49.006;9.292;2023-06-04T04:36:42;7.20;;;1.48;;
50932;SDS011;36921;49.006;9.292;2023-06-04T04:39:09;3.47;;;1.73;;
50932;SDS011;36921;49.006;9.292;2023-06-04T04:41:34;3.63;;;1.65;;
50932;SDS011;36921;49.006;9.292;2023-06-04T04:44:03;3.30;;;1.63;;
50932;SDS011;36921;49.006;9.292;2023-06-04T04:46:30;5.60;;;1.50;;
50932;SDS011;36921;49.006;9.292;2023-06-04T04:48:55;3.13;;;1.52;;
50932;SDS011;36921;49.006;9.292;2023-06-04T04:51:21;5.68;;;1.55;;
50932;SDS011;36921;49.006;9.292;2023-06-04T04:53:47;2.38;;;1.30;;
50932;SDS011;36921;49.006;9.292;2023-06-04T04:56:12;3.55;;;1.50;;
50932;SDS011;36921;49.006;9.292;2023-06-04T04:58:38;5.53;;;1.52;;
50932;SDS011;36921;49.006;9.292;2023-06-04T05:01:03;6.40;;;1.92;;
50932;SDS011;36921;49.006;9.292;2023-06-04T05:03:29;8.85;;;1.70;;
50932;SDS011;36921;49.006;9.292;2023-06-04T05:05:54;5.85;;;1.67;;
50932;SDS011;36921;49.006;9.292;2023-06-04T05:08:20;4.22;;;1.60;;
50932;SDS011;36921;49.006;9.292;2023-06-04T05:10:45;5.15;;;1.40;;
50932;SDS011;36921;49.006;9.292;2023-06-04T05:13:11;2.10;;;1.10;;
50932;SDS011;36921;49.006;9.292;2023-06-04T05:15:36;3.53;;;1.60;;
50932;SDS011;36921;49.006;9.292;2023-06-04T05:18:02;4.75;;;1.33;;
50932;SDS011;36921;49.006;9.292;2023-06-04T05:20:28;4.68;;;1.30;;
50932;SDS011;36921;49.006;9.292;2023-06-04T05:22:54;2.13;;;1.13;;
50932;SDS011;36921;49.006;9.292;2023-06-04T05:25:20;1.90;;;1.10;;
50932;SDS011;36921;49.006;9.292;2023-06-04T05:27:46;2.67;;;1.40;;
50932;SDS011;36921;49.006;9.292;2023-06-04T05:30:14;4.90;;;1.77;;
50932;SDS011;36921;49.006;9.292;2023-06-04T05:32:39;7.72;;;1.58;;
50932;SDS011;36921;49.006;9.292;2023-06-04T05:35:05;4.55;;;1.33;;
50932;SDS011;36921;49.006;9.292;2023-06-04T05:37:33;7.00;;;1.50;;
50932;SDS011;36921;49.006;9.292;2023-06-04T05:39:59;2.45;;;1.10;;
50932;SDS011;36921;49.006;9.292;2023-06-04T05:42:25;5.60;;;1.38;;
50932;SDS011;36921;49.006;9.292;2023-06-04T05:44:51;4.80;;;1.30;;
50932;SDS011;36921;49.006;9.292;2023-06-04T05:47:17;1.65;;;1.00;;
50932;SDS011;36921;49.006;9.292;2023-06-04T05:49:43;4.10;;;1.40;;
50932;SDS011;36921;49.006;9.292;2023-06-04T05:52:09;2.25;;;1.23;;
50932;SDS011;36921;49.006;9.292;2023-06-04T05:59:30;2.75;;;1.10;;
50932;SDS011;36921;49.006;9.292;2023-06-04T06:01:56;3.50;;;1.23;;
50932;SDS011;36921;49.006;9.292;2023-06-04T06:04:22;4.88;;;1.48;;
50932;SDS011;36921;49.006;9.292;2023-06-04T06:06:47;5.47;;;1.50;;
50932;SDS011;36921;49.006;9.292;2023-06-04T06:09:14;7.25;;;1.70;;
50932;SDS011;36921;49.006;9.292;2023-06-04T06:11:40;2.35;;;1.15;;
50932;SDS011;36921;49.006;9.292;2023-06-04T06:14:05;5.28;;;1.13;;
50932;SDS011;36921;49.006;9.292;2023-06-04T06:16:31;5.57;;;1.38;;
50932;SDS011;36921;49.006;9.292;2023-06-04T06:18:58;5.10;;;1.30;;
50932;SDS011;36921;49.006;9.292;2023-06-04T06:21:23;2.15;;;1.30;;
50932;SDS011;36921;49.006;9.292;2023-06-04T06:23:49;2.65;;;1.25;;
50932;SDS011;36921;49.006;9.292;2023-06-04T06:26:14;2.35;;;1.27;;
50932;SDS011;36921;49.006;9.292;2023-06-04T06:28:41;2.78;;;1.20;;
50932;SDS011;36921;49.006;9.292;2023-06-04T06:31:06;3.17;;;1.20;;
50932;SDS011;36921;49.006;9.292;2023-06-04T06:33:32;3.42;;;1.20;;
50932;SDS011;36921;49.006;9.292;2023-06-04T06:35:57;3.92;;;1.10;;
50932;SDS011;36921;49.006;9.292;2023-06-04T06:38:26;3.47;;;1.05;;
50932;SDS011;36921;49.006;9.292;2023-06-04T06:40:52;2.15;;;1.02;;
50932;SDS011;36921;49.006;9.292;2023-06-04T06:43:17;2.50;;;1.05;;
50932;SDS011;36921;49.006;9.292;2023-06-04T06:45:43;1.55;;;1.00;;
50932;SDS011;36921;49.006;9.292;2023-06-04T06:48:08;2.83;;;1.30;;
50932;SDS011;36921;49.006;9.292;2023-06-04T06:50:34;3.78;;;1.30;;
50932;SDS011;36921;49.006;9.292;2023-06-04T06:53:01;5.80;;;1.17;;
50932;SDS011;36921;49.006;9.292;2023-06-04T06:55:27;3.45;;;1.08;;
50932;SDS011;36921;49.006;9.292;2023-06-04T06:57:52;4.93;;;1.40;;
50932;SDS011;36921;49.006;9.292;2023-06-04T07:00:17;4.97;;;0.98;;
50932;SDS011;36921;49.006;9.292;2023-06-04T07:02:43;2.47;;;1.30;;
50932;SDS011;36921;49.006;9.292;2023-06-04T07:05:09;1.33;;;0.90;;
50932;SDS011;36921;49.006;9.292;2023-06-04T07:07:34;4.88;;;1.38;;
50932;SDS011;36921;49.006;9.292;2023-06-04T07:10:00;1.92;;;0.98;;
50932;SDS011;36921;49.006;9.292;2023-06-04T07:12:26;2.13;;;1.10;;
50932;SDS011;36921;49.006;9.292;2023-06-04T07:14:51;2.60;;;1.08;;
50932;SDS011;36921;49.006;9.292;2023-06-04T07:17:16;3.80;;;1.17;;
50932;SDS011;36921;49.006;9.292;2023-06-04T07:19:42;2.33;;;1.05;;
50932;SDS011;36921;49.006;9.292;2023-06-04T07:22:07;4.35;;;1.10;;
50932;SDS011;36921;49.006;9.292;2023-06-04T07:24:33;3.08;;;1.45;;
50932;SDS011;36921;49.006;9.292;2023-06-04T07:26:58;2.53;;;1.20;;
50932;SDS011;36921;49.006;9.292;2023-06-04T07:29:24;2.97;;;1.27;;
50932;SDS011;36921;49.006;9.292;2023-06-04T07:31:49;1.80;;;1.10;;
50932;SDS011;36921;49.006;9.292;2023-06-04T07:34:14;5.88;;;0.90;;
50932;SDS011;36921;49.006;9.292;2023-06-04T07:36:40;3.08;;;1.20;;
50932;SDS011;36921;49.006;9.292;2023-06-04T07:39:06;1.73;;;1.20;;
50932;SDS011;36921;49.006;9.292;2023-06-04T07:41:32;4.70;;;1.00;;
50932;SDS011;36921;49.006;9.292;2023-06-04T07:43:57;4.65;;;1.40;;
50932;SDS011;36921;49.006;9.292;2023-06-04T07:46:22;2.58;;;1.20;;
50932;SDS011;36921;49.006;9.292;2023-06-04T07:48:48;2.70;;;1.30;;
50932;SDS011;36921;49.006;9.292;2023-06-04T07:51:13;2.75;;;1.40;;
50932;SDS011;36921;49.006;9.292;2023-06-04T07:53:39;2.60;;;1.20;;
50932;SDS011;36921;49.006;9.292;2023-06-04T07:56:05;2.15;;;1.10;;
50932;SDS011;36921;49.006;9.292;2023-06-04T07:58:31;4.80;;;1.30;;
50932;SDS011;36921;49.006;9.292;2023-06-04T08:00:57;3.88;;;1.05;;
50932;SDS011;36921;49.006;9.292;2023-06-04T08:03:22;1.33;;;1.00;;
50932;SDS011;36921;49.006;9.292;2023-06-04T08:05:48;3.53;;;1.27;;
50932;SDS011;36921;49.006;9.292;2023-06-04T08:08:14;2.38;;;1.13;;
50932;SDS011;36921;49.006;9.292;2023-06-04T08:10:39;1.95;;;1.00;;
50932;SDS011;36921;49.006;9.292;2023-06-04T08:13:05;2.55;;;1.33;;
50932;SDS011;36921;49.006;9.292;2023-06-04T08:15:31;2.95;;;1.30;;
50932;SDS011;36921;49.006;9.292;2023-06-04T08:17:56;1.85;;;1.38;;
50932;SDS011;36921;49.006;9.292;2023-06-04T08:20:23;2.00;;;1.10;;
50932;SDS011;36921;49.006;9.292;2023-06-04T08:22:49;2.67;;;1.10;;
50932;SDS011;36921;49.006;9.292;2023-06-04T08:25:14;2.30;;;1.23;;
50932;SDS011;36921;49.006;9.292;2023-06-04T08:27:40;3.35;;;1.30;;
50932;SDS011;36921;49.006;9.292;2023-06-04T08:30:07;3.65;;;1.13;;
50932;SDS011;36921;49.006;9.292;2023-06-04T08:32:33;1.80;;;1.08;;
50932;SDS011;36921;49.006;9.292;2023-06-04T08:34:59;6.60;;;1.13;;
50932;SDS011;36921;49.006;9.292;2023-06-04T08:37:24;3.03;;;0.90;;
50932;SDS011;36921;49.006;9.292;2023-06-04T08:39:50;2.30;;;1.10;;
50932;SDS011;36921;49.006;9.292;2023-06-04T08:42:18;1.90;;;0.93;;
50932;SDS011;36921;49.006;9.292;2023-06-04T08:44:54;1.88;;;1.10;;
50932;SDS011;36921;49.006;9.292;2023-06-04T08:47:23;1.77;;;1.20;;
50932;SDS011;36921;49.006;9.292;2023-06-04T08:49:50;2.88;;;0.98;;
50932;SDS011;36921;49.006;9.292;2023-06-04T08:52:18;1.80;;;0.98;;
50932;SDS011;36921;49.006;9.292;2023-06-04T08:54:47;2.30;;;1.10;;
50932;SDS011;36921;49.006;9.292;2023-06-04T08:57:14;2.83;;;1.52;;
50932;SDS011;36921;49.006;9.292;2023-06-04T08:59:41;1.83;;;1.00;;
50932;SDS011;36921;49.006;9.292;2023-06-04T09:02:07;1.48;;;1.00;;
50932;SDS011;36921;49.006;9.292;2023-06-04T09:04:33;2.50;;;1.40;;
50932;SDS011;36921;49.006;9.292;2023-06-04T09:07:00;2.00;;;1.08;;
50932;SDS011;36921;49.006;9.292;2023-06-04T09:09:27;2.97;;;1.27;;
50932;SDS011;36921;49.006;9.292;2023-06-04T09:11:55;3.60;;;1.10;;
50932;SDS011;36921;49.006;9.292;2023-06-04T09:14:22;4.47;;;1.42;;
50932;SDS011;36921;49.006;9.292;2023-06-04T09:16:48;7.32;;;1.20;;
50932;SDS011;36921;49.006;9.292;2023-06-04T09:19:19;1.90;;;1.00;;
50932;SDS011;36921;49.006;9.292;2023-06-04T09:21:55;3.90;;;1.05;;
50932;SDS011;36921;49.006;9.292;2023-06-04T09:24:24;3.38;;;1.00;;
50932;SDS011;36921;49.006;9.292;2023-06-04T09:27:08;2.17;;;1.10;;
50932;SDS011;36921;49.006;9.292;2023-06-04T09:29:35;1.75;;;1.40;;
50932;SDS011;36921;49.006;9.292;2023-06-04T09:32:01;4.72;;;1.73;;
50932;SDS011;36921;49.006;9.292;2023-06-04T09:34:30;1.63;;;1.10;;
50932;SDS011;36921;49.006;9.292;2023-06-04T09:36:56;2.15;;;1.27;;
50932;SDS011;36921;49.006;9.292;2023-06-04T09:39:21;3.22;;;1.42;;
50932;SDS011;36921;49.006;9.292;2023-06-04T09:42:00;2.70;;;1.38;;
50932;SDS011;36921;49.006;9.292;2023-06-04T09:44:28;1.20;;;0.90;;
50932;SDS011;36921;49.006;9.292;2023-06-04T09:46:57;3.85;;;1.40;;
50932;SDS011;36921;49.006;9.292;2023-06-04T09:49:23;2.03;;;1.10;;
50932;SDS011;36921;49.006;9.292;2023-06-04T09:51:50;3.45;;;1.40;;
50932;SDS011;36921;49.006;9.292;2023-06-04T09:54:15;2.20;;;1.40;;
50932;SDS011;36921;49.006;9.292;2023-06-04T09:56:41;1.98;;;1.30;;
50932;SDS011;36921;49.006;9.292;2023-06-04T09:59:08;2.92;;;1.40;;
50932;SDS011;36921;49.006;9.292;2023-06-04T10:01:38;2.53;;;1.03;;
50932;SDS011;36921;49.006;9.292;2023-06-04T10:04:06;2.45;;;1.40;;
50932;SDS011;36921;49.006;9.292;2023-06-04T10:06:34;2.50;;;1.17;;
50932;SDS011;36921;49.006;9.292;2023-06-04T10:09:04;2.03;;;1.10;;
50932;SDS011;36921;49.006;9.292;2023-06-04T10:11:33;1.90;;;1.30;;
50932;SDS011;36921;49.006;9.292;2023-06-04T10:14:02;5.20;;;1.40;;
50932;SDS011;36921;49.006;9.292;2023-06-04T10:16:32;2.25;;;1.38;;
50932;SDS011;36921;49.006;9.292;2023-06-04T10:18:58;3.85;;;1.45;;
50932;SDS011;36921;49.006;9.292;2023-06-04T10:21:26;2.35;;;1.30;;
50932;SDS011;36921;49.006;9.292;2023-06-04T10:23:51;5.57;;;1.33;;
50932;SDS011;36921;49.006;9.292;2023-06-04T10:26:17;1.63;;;1.10;;
50932;SDS011;36921;49.006;9.292;2023-06-04T10:28:43;2.08;;;1.08;;
50932;SDS011;36921;49.006;9.292;2023-06-04T10:31:09;4.05;;;1.38;;
50932;SDS011;36921;49.006;9.292;2023-06-04T10:33:35;3.10;;;1.40;;
50932;SDS011;36921;49.006;9.292;2023-06-04T10:36:15;1.85;;;1.15;;
50932;SDS011;36921;49.006;9.292;2023-06-04T10:38:52;2.85;;;1.30;;
50932;SDS011;36921;49.006;9.292;2023-06-04T10:41:19;2.45;;;1.30;;
50932;SDS011;36921;49.006;9.292;2023-06-04T10:43:49;2.40;;;1.58;;
50932;SDS011;36921;49.006;9.292;2023-06-04T10:46:16;1.48;;;1.30;;
50932;SDS011;36921;49.006;9.292;2023-06-04T10:51:12;2.70;;;1.40;;
50932;SDS011;36921;49.006;9.292;2023-06-04T10:53:37;2.88;;;1.33;;
50932;SDS011;36921;49.006;9.292;2023-06-04T10:56:03;1.92;;;1.33;;
50932;SDS011;36921;49.006;9.292;2023-06-04T10:58:34;2.78;;;1.40;;
50932;SDS011;36921;49.006;9.292;2023-06-04T11:01:00;1.42;;;1.30;;
50932;SDS011;36921;49.006;9.292;2023-06-04T11:03:34;2.70;;;1.52;;
50932;SDS011;36921;49.006;9.292;2023-06-04T11:06:01;5.30;;;1.50;;
50932;SDS011;36921;49.006;9.292;2023-06-04T11:08:28;3.67;;;1.35;;
50932;SDS011;36921;49.006;9.292;2023-06-04T11:10:55;2.90;;;1.33;;
50932;SDS011;36921;49.006;9.292;2023-06-04T11:13:24;2.53;;;1.45;;
50932;SDS011;36921;49.006;9.292;2023-06-04T11:15:53;4.95;;;1.40;;
50932;SDS011;36921;49.006;9.292;2023-06-04T11:18:19;3.75;;;1.30;;
50932;SDS011;36921;49.006;9.292;2023-06-04T11:20:46;2.03;;;1.15;;
50932;SDS011;36921;49.006;9.292;2023-06-04T11:23:13;2.33;;;1.52;;
50932;SDS011;36921;49.006;9.292;2023-06-04T11:25:39;4.10;;;1.75;;
50932;SDS011;36921;49.006;9.292;2023-06-04T11:28:05;5.45;;;1.60;;
50932;SDS011;36921;49.006;9.292;2023-06-04T11:30:31;4.47;;;1.40;;
50932;SDS011;36921;49.006;9.292;2023-06-04T11:33:03;4.18;;;1.33;;
50932;SDS011;36921;49.006;9.292;2023-06-04T11:35:30;2.38;;;1.42;;
50932;SDS011;36921;49.006;9.292;2023-06-04T11:38:04;2.83;;;1.45;;
50932;SDS011;36921;49.006;9.292;2023-06-04T11:40:30;3.58;;;1.60;;
50932;SDS011;36921;49.006;9.292;2023-06-04T11:42:55;3.45;;;1.60;;
50932;SDS011;36921;49.006;9.292;2023-06-04T11:45:22;6.10;;;1.42;;
50932;SDS011;36921;49.006;9.292;2023-06-04T11:47:54;4.22;;;1.45;;
50932;SDS011;36921;49.006;9.292;2023-06-04T11:50:26;2.22;;;1.52;;
50932;SDS011;36921;49.006;9.292;2023-06-04T11:52:53;2.05;;;1.40;;
50932;SDS011;36921;49.006;9.292;2023-06-04T11:55:19;2.15;;;1.38;;
50932;SDS011;36921;49.006;9.292;2023-06-04T11:57:48;3.25;;;1.40;;
50932;SDS011;36921;49.006;9.292;2023-06-04T12:00:15;1.67;;;1.08;;
50932;SDS011;36921;49.006;9.292;2023-06-04T12:02:49;2.75;;;1.40;;
50932;SDS011;36921;49.006;9.292;2023-06-04T12:05:19;2.47;;;1.25;;
50932;SDS011;36921;49.006;9.292;2023-06-04T12:07:47;2.42;;;1.40;;
50932;SDS011;36921;49.006;9.292;2023-06-04T12:10:16;2.13;;;1.42;;
50932;SDS011;36921;49.006;9.292;2023-06-04T12:12:45;3.20;;;1.42;;
50932;SDS011;36921;49.006;9.292;2023-06-04T12:15:12;2.22;;;1.48;;
50932;SDS011;36921;49.006;9.292;2023-06-04T12:17:53;2.30;;;1.60;;
50932;SDS011;36921;49.006;9.292;2023-06-04T12:20:30;2.05;;;1.50;;
50932;SDS011;36921;49.006;9.292;2023-06-04T12:22:57;3.40;;;1.77;;
50932;SDS011;36921;49.006;9.292;2023-06-04T12:25:23;5.87;;;1.57;;
50932;SDS011;36921;49.006;9.292;2023-06-04T12:27:52;2.33;;;1.67;;
50932;SDS011;36921;49.006;9.292;2023-06-04T12:30:18;4.78;;;2.00;;
50932;SDS011;36921;49.006;9.292;2023-06-04T12:32:43;2.88;;;1.77;;
50932;SDS011;36921;49.006;9.292;2023-06-04T12:35:10;3.70;;;1.60;;
50932;SDS011;36921;49.006;9.292;2023-06-04T12:37:36;2.45;;;1.50;;
50932;SDS011;36921;49.006;9.292;2023-06-04T12:40:01;3.50;;;1.57;;
50932;SDS011;36921;49.006;9.292;2023-06-04T12:42:26;6.03;;;1.80;;
50932;SDS011;36921;49.006;9.292;2023-06-04T12:44:53;3.05;;;1.70;;
50932;SDS011;36921;49.006;9.292;2023-06-04T12:47:18;1.80;;;1.38;;
50932;SDS011;36921;49.006;9.292;2023-06-04T12:49:44;2.33;;;1.85;;
50932;SDS011;36921;49.006;9.292;2023-06-04T12:52:10;3.92;;;1.50;;
50932;SDS011;36921;49.006;9.292;2023-06-04T12:54:35;6.40;;;1.50;;
50932;SDS011;36921;49.006;9.292;2023-06-04T12:57:00;3.03;;;1.70;;
50932;SDS011;36921;49.006;9.292;2023-06-04T12:59:26;2.88;;;1.75;;
50932;SDS011;36921;49.006;9.292;2023-06-04T13:01:52;2.47;;;1.80;;
50932;SDS011;36921;49.006;9.292;2023-06-04T13:04:18;2.83;;;1.75;;
50932;SDS011;36921;49.006;9.292;2023-06-04T13:06:44;3.47;;;1.92;;
50932;SDS011;36921;49.006;9.292;2023-06-04T13:09:10;3.53;;;1.92;;
50932;SDS011;36921;49.006;9.292;2023-06-04T13:11:41;3.22;;;1.60;;
50932;SDS011;36921;49.006;9.292;2023-06-04T13:14:08;3.95;;;1.80;;
50932;SDS011;36921;49.006;9.292;2023-06-04T13:16:34;3.15;;;1.65;;
50932;SDS011;36921;49.006;9.292;2023-06-04T13:19:01;2.55;;;1.55;;
50932;SDS011;36921;49.006;9.292;2023-06-04T13:21:26;2.22;;;1.40;;
50932;SDS011;36921;49.006;9.292;2023-06-04T13:23:51;2.90;;;1.38;;
50932;SDS011;36921;49.006;9.292;2023-06-04T13:26:17;2.40;;;1.30;;
50932;SDS011;36921;49.006;9.292;2023-06-04T13:28:43;3.28;;;1.60;;
50932;SDS011;36921;49.006;9.292;2023-06-04T13:31:08;2.33;;;1.58;;
50932;SDS011;36921;49.006;9.292;2023-06-04T13:33:33;4.00;;;1.53;;
50932;SDS011;36921;49.006;9.292;2023-06-04T13:35:59;4.30;;;1.20;;
50932;SDS011;36921;49.006;9.292;2023-06-04T13:38:25;4.00;;;1.45;;
50932;SDS011;36921;49.006;9.292;2023-06-04T13:40:51;2.30;;;1.60;;
50932;SDS011;36921;49.006;9.292;2023-06-04T13:43:17;2.92;;;1.25;;
50932;SDS011;36921;49.006;9.292;2023-06-04T13:45:42;4.30;;;1.52;;
50932;SDS011;36921;49.006;9.292;2023-06-04T13:48:09;2.23;;;1.13;;
50932;SDS011;36921;49.006;9.292;2023-06-04T13:50:35;2.92;;;1.20;;
50932;SDS011;36921;49.006;9.292;2023-06-04T13:53:00;3.40;;;1.23;;
50932;SDS011;36921;49.006;9.292;2023-06-04T13:55:26;2.10;;;1.20;;
50932;SDS011;36921;49.006;9.292;2023-06-04T13:57:51;1.85;;;1.13;;
50932;SDS011;36921;49.006;9.292;2023-06-04T14:00:16;3.70;;;1.20;;
50932;SDS011;36921;49.006;9.292;2023-06-04T14:02:42;1.70;;;1.35;;
50932;SDS011;36921;49.006;9.292;2023-06-04T14:05:07;4.03;;;1.50;;
50932;SDS011;36921;49.006;9.292;2023-06-04T14:07:33;3.22;;;1.30;;
50932;SDS011;36921;49.006;9.292;2023-06-04T14:09:58;1.80;;;1.15;;
50932;SDS011;36921;49.006;9.292;2023-06-04T14:12:24;3.60;;;1.17;;
50932;SDS011;36921;49.006;9.292;2023-06-04T14:14:50;4.88;;;1.30;;
50932;SDS011;36921;49.006;9.292;2023-06-04T14:17:15;2.67;;;1.30;;
50932;SDS011;36921;49.006;9.292;2023-06-04T14:19:41;3.25;;;1.60;;
50932;SDS011;36921;49.006;9.292;2023-06-04T14:22:06;2.20;;;1.40;;
50932;SDS011;36921;49.006;9.292;2023-06-04T14:24:32;2.55;;;1.33;;
50932;SDS011;36921;49.006;9.292;2023-06-04T14:26:58;2.83;;;1.20;;
50932;SDS011;36921;49.006;9.292;2023-06-04T14:29:23;7.05;;;1.30;;
50932;SDS011;36921;49.006;9.292;2023-06-04T14:31:48;3.28;;;1.63;;
50932;SDS011;36921;49.006;9.292;2023-06-04T14:34:14;1.92;;;1.05;;
50932;SDS011;36921;49.006;9.292;2023-06-04T14:36:39;2.53;;;1.30;;
50932;SDS011;36921;49.006;9.292;2023-06-04T14:39:05;2.05;;;1.23;;
50932;SDS011;36921;49.006;9.292;2023-06-04T14:41:30;2.20;;;1.30;;
50932;SDS011;36921;49.006;9.292;2023-06-04T14:43:56;2.42;;;1.23;;
50932;SDS011;36921;49.006;9.292;2023-06-04T14:46:21;2.03;;;1.30;;
50932;SDS011;36921;49.006;9.292;2023-06-04T14:48:47;4.47;;;1.27;;
50932;SDS011;36921;49.006;9.292;2023-06-04T14:51:12;1.97;;;1.30;;
50932;SDS011;36921;49.006;9.292;2023-06-04T14:53:37;1.85;;;1.27;;
50932;SDS011;36921;49.006;9.292;2023-06-04T14:56:05;4.40;;;1.20;;
50932;SDS011;36921;49.006;9.292;2023-06-04T14:58:31;1.77;;;1.33;;
50932;SDS011;36921;49.006;9.292;2023-06-04T15:00:56;2.88;;;1.30;;